Time;durP1;ratioP1;P1;durP2;ratioP2;P2;SDS_P1;SDS_P2;PMS_P1;PMS_P2;Temp;Humidity;BMP_temperature;BMP_pressure;BME280_temperature;BME280_humidity;BME280_pressure;Samples;Min_cycle;Max_cycle;Signal;HPM_P1;HPM_P2
2022/05/11 05:03:21;;;;;;;9.65;7.57;;;15.50;99.90;;;;;;6197369;23;20083;-78
2022/05/11 05:05:47;;;;;;;11.40;7.40;;;15.50;99.90;;;;;;6222704;23;20032;-77
2022/05/11 05:08:15;;;;;;;11.00;7.22;;;15.50;99.90;;;;;;6221698;23;20373;-75
2022/05/11 05:10:41;;;;;;;12.00;7.55;;;15.60;99.90;;;;;;6196516;23;20032;-77
2022/05/11 05:13:11;;;;;;;11.27;7.70;;;15.70;99.40;;;;;;6222461;23;20040;-77
2022/05/11 05:15:40;;;;;;;12.05;7.88;;;15.80;99.20;;;;;;6222556;23;20039;-76
2022/05/11 05:18:06;;;;;;;;;;;15.80;98.90;;;;;;6223509;23;20005;-77
2022/05/11 05:20:33;;;;;;;12.68;7.80;;;15.80;98.50;;;;;;6223013;23;20134;-77
2022/05/11 05:22:58;;;;;;;10.93;8.15;;;15.90;98.50;;;;;;6196426;23;20286;-77
2022/05/11 05:25:25;;;;;;;13.02;8.07;;;16.00;98.40;;;;;;6222345;23;20163;-77
2022/05/11 05:27:52;;;;;;;12.85;8.27;;;16.10;98.00;;;;;;6223025;23;20035;-77
2022/05/11 05:33:03;;;;;;;19.08;9.63;;;16.20;98.20;;;;;;6223840;23;20001;-78
2022/05/11 05:35:29;;;;;;;18.40;9.48;;;16.30;97.60;;;;;;6224959;23;20004;-77
2022/05/11 05:37:55;;;;;;;14.48;8.60;;;16.40;97.50;;;;;;6224931;23;20000;-76
2022/05/11 05:40:21;;;;;;;13.07;8.35;;;16.60;97.10;;;;;;6224260;23;20244;-78
2022/05/11 05:42:48;;;;;;;14.32;7.70;;;16.80;96.90;;;;;;6225276;23;20270;-78
2022/05/11 05:45:14;;;;;;;13.60;8.18;;;16.90;96.30;;;;;;6223755;23;19997;-78
2022/05/11 05:47:40;;;;;;;14.30;8.60;;;17.00;96.50;;;;;;6198595;23;20000;-78
2022/05/11 05:50:07;;;;;;;10.35;7.20;;;17.10;96.20;;;;;;6224395;23;20013;-79
2022/05/11 05:52:33;;;;;;;11.57;7.80;;;17.20;95.20;;;;;;6198646;23;20085;-79
2022/05/11 05:54:59;;;;;;;17.15;8.40;;;17.40;95.70;;;;;;6198393;23;19997;-78
2022/05/11 05:57:27;;;;;;;12.35;7.68;;;17.50;95.40;;;;;;6224318;23;20003;-79
2022/05/11 05:59:53;;;;;;;10.98;7.18;;;17.80;94.70;;;;;;6224701;23;20230;-79
2022/05/11 06:02:19;;;;;;;12.93;8.23;;;17.80;94.50;;;;;;6222641;23;20017;-79
2022/05/11 06:04:47;;;;;;;13.57;8.00;;;17.90;94.20;;;;;;6224262;23;20012;-78
2022/05/11 06:07:14;;;;;;;13.27;7.65;;;18.00;94.20;;;;;;6197243;23;20294;-79
2022/05/11 06:09:40;;;;;;;11.73;7.57;;;18.20;94.40;;;;;;6224271;23;20108;-78
2022/05/11 06:12:08;;;;;;;9.77;6.32;;;18.40;94.10;;;;;;6175701;23;20005;-80
2022/05/11 06:14:34;;;;;;;8.97;7.03;;;18.50;93.40;;;;;;6227577;23;20047;-78
2022/05/11 06:17:01;;;;;;;13.38;6.95;;;18.70;93.00;;;;;;6172953;23;20455;-78
2022/05/11 06:19:28;;;;;;;10.25;7.68;;;18.80;93.30;;;;;;6198170;23;20011;-79
2022/05/11 06:21:54;;;;;;;10.52;6.78;;;19.00;92.50;;;;;;6224088;23;20004;-80
2022/05/11 06:24:19;;;;;;;10.18;6.47;;;19.10;92.20;;;;;;6198774;23;20008;-79
2022/05/11 06:26:46;;;;;;;12.50;6.57;;;19.30;91.80;;;;;;6225031;23;20160;-78
2022/05/11 06:29:12;;;;;;;8.35;5.82;;;19.40;91.50;;;;;;6173180;23;20001;-78
2022/05/11 06:31:38;;;;;;;8.65;6.43;;;19.50;91.50;;;;;;6196907;23;20012;-78
2022/05/11 06:34:04;;;;;;;9.40;5.78;;;19.70;91.20;;;;;;6198763;23;20302;-78
2022/05/11 06:36:30;;;;;;;6.68;4.70;;;19.80;90.60;;;;;;6198398;23;20059;-78
2022/05/11 06:38:56;;;;;;;9.60;5.40;;;19.90;89.80;;;;;;6225103;23;20314;-78
2022/05/11 06:41:26;;;;;;;6.10;3.92;;;20.10;89.50;;;;;;6206256;23;20008;-77
2022/05/11 06:43:54;;;;;;;7.88;5.03;;;20.40;87.60;;;;;;6178744;23;20005;-79
2022/05/11 06:46:21;;;;;;;11.40;5.72;;;20.60;88.50;;;;;;6173122;23;20009;-78
2022/05/11 06:48:48;;;;;;;5.28;4.10;;;20.60;88.50;;;;;;6132713;23;20056;-78
2022/05/11 06:51:15;;;;;;;6.55;4.03;;;20.80;85.60;;;;;;6108666;23;20339;-78
2022/05/11 06:59:27;;;;;;;5.18;4.05;;;21.20;83.50;;;;;;6131795;23;20273;-77
2022/05/11 07:02:02;;;;;;;6.95;4.00;;;21.40;82.60;;;;;;6102502;23;20044;-79
2022/05/11 07:04:28;;;;;;;5.80;3.50;;;21.40;82.60;;;;;;6077680;23;20293;-78
2022/05/11 07:06:56;;;;;;;6.45;3.63;;;21.60;82.40;;;;;;6079482;23;20006;-78
2022/05/11 07:09:24;;;;;;;4.93;3.47;;;21.60;82.00;;;;;;6078254;23;20046;-78
2022/05/11 07:14:35;;;;;;;5.07;3.22;;;21.80;81.80;;;;;;6103296;23;20260;-77
2022/05/11 07:17:02;;;;;;;4.30;3.67;;;22.00;80.70;;;;;;6101377;23;20022;-77
2022/05/11 07:19:28;;;;;;;4.40;3.38;;;22.10;80.70;;;;;;6136489;23;20072;-79
2022/05/11 07:21:54;;;;;;;4.55;3.45;;;22.20;79.90;;;;;;6193792;23;20012;-77
2022/05/11 07:24:20;;;;;;;5.30;3.38;;;22.30;79.30;;;;;;6191916;23;20000;-78
2022/05/11 07:26:47;;;;;;;4.90;3.45;;;22.40;78.90;;;;;;6192893;23;20008;-78
2022/05/11 07:29:14;;;;;;;4.97;3.28;;;22.40;78.50;;;;;;6141596;23;20013;-78
2022/05/11 07:31:59;;;;;;;4.35;3.13;;;22.50;78.40;;;;;;6165791;23;20060;-79
2022/05/11 07:34:25;;;;;;;5.35;3.08;;;22.60;78.10;;;;;;6192485;23;20001;-78
2022/05/11 07:36:56;;;;;;;5.82;3.28;;;22.80;78.20;;;;;;6166686;23;19996;-78
2022/05/11 07:39:23;;;;;;;6.18;3.35;;;22.80;77.60;;;;;;6165767;23;20199;-78
2022/05/11 07:42:33;;;;;;;4.88;3.20;;;23.00;77.70;;;;;;6166080;23;20318;-77
2022/05/11 07:45:08;;;;;;;4.25;2.97;;;23.10;76.80;;;;;;6138996;23;20407;-76
2022/05/11 07:47:34;;;;;;;5.68;2.92;;;23.30;76.70;;;;;;6173184;23;20001;-77
2022/05/11 07:50:10;;;;;;;3.50;2.70;;;23.40;75.10;;;;;;6175697;23;20004;-77
2022/05/11 07:52:56;;;;;;;5.57;3.00;;;23.60;74.20;;;;;;6174518;23;20001;-77
2022/05/11 08:02:14;;;;;;;7.68;2.80;;;23.60;74.00;;;;;;6170168;23;20028;-77
2022/05/11 08:04:42;;;;;;;3.75;2.78;;;23.80;73.20;;;;;;6197640;23;19997;-79
2022/05/11 08:07:58;;;;;;;4.20;2.70;;;23.90;72.20;;;;;;6223066;23;20008;-77
2022/05/11 08:10:58;;;;;;;5.65;2.65;;;23.90;72.90;;;;;;6203096;23;20720;-77
2022/05/11 08:13:25;;;;;;;5.60;2.45;;;24.10;72.60;;;;;;6195912;23;20230;-77
2022/05/11 08:15:54;;;;;;;8.13;2.90;;;24.30;71.30;;;;;;6220898;23;19997;-78
2022/05/11 08:18:19;;;;;;;4.65;2.60;;;24.20;70.80;;;;;;6221319;23;20109;-78
2022/05/11 08:20:57;;;;;;;3.42;2.38;;;24.30;71.30;;;;;;6170009;23;20063;-78
2022/05/11 08:23:25;;;;;;;4.72;2.33;;;24.40;70.00;;;;;;6190352;23;20001;-77
2022/05/11 08:25:57;;;;;;;5.45;2.53;;;24.40;69.50;;;;;;6202051;23;20005;-78
2022/05/11 08:34:57;;;;;;;3.65;2.20;;;24.70;69.10;;;;;;6221932;23;20334;-78
2022/05/11 08:37:30;;;;;;;5.78;2.40;;;24.90;69.10;;;;;;6195001;23;20027;-80
2022/05/11 08:43:55;;;;;;;5.22;2.35;;;25.10;68.40;;;;;;6089360;23;20014;-78
2022/05/11 08:50:20;;;;;;;3.60;2.35;;;25.40;67.30;;;;;;6221501;23;20099;-78
2022/05/11 08:52:58;;;;;;;3.35;2.30;;;25.40;65.90;;;;;;6170047;23;20294;-78
2022/05/11 08:55:37;;;;;;;4.30;2.28;;;25.40;66.00;;;;;;6221319;23;20001;-78
2022/05/11 08:58:21;;;;;;;3.42;2.40;;;25.30;66.20;;;;;;6195605;23;20005;-78
2022/05/11 09:00:49;;;;;;;4.43;2.60;;;25.50;66.10;;;;;;6169279;23;20008;-78
2022/05/11 09:03:36;;;;;;;5.55;2.67;;;25.50;66.50;;;;;;6193820;23;20071;-78
2022/05/11 09:10:45;;;;;;;6.10;2.65;;;25.70;66.70;;;;;;6130967;23;20102;-77
2022/05/11 09:13:18;;;;;;;4.97;3.00;;;25.80;67.00;;;;;;6131002;23;20045;-78
2022/05/11 09:16:16;;;;;;;6.25;2.83;;;25.80;66.70;;;;;;6106946;23;20104;-78
2022/05/11 09:18:43;;;;;;;4.93;3.13;;;25.80;67.10;;;;;;6131527;23;20363;-79
2022/05/11 09:21:39;;;;;;;4.68;2.80;;;25.90;66.80;;;;;;6132493;23;19994;-77
2022/05/11 09:24:23;;;;;;;6.55;2.83;;;25.90;67.00;;;;;;6043979;23;20307;-78
2022/05/11 09:43:50;;;;;;;3.78;2.90;;;26.10;66.50;;;;;;6094367;23;20030;-78
2022/05/11 09:49:42;;;;;;;7.53;2.85;;;26.40;65.80;;;;;;6253669;23;20026;-79
2022/05/11 09:56:01;;;;;;;6.63;3.40;;;26.60;66.20;;;;;;6221025;23;20011;-79
2022/05/11 09:58:33;;;;;;;5.97;3.25;;;26.80;66.50;;;;;;6224061;23;20031;-77
2022/05/11 10:01:13;;;;;;;5.03;3.53;;;27.10;66.00;;;;;;6202404;23;20066;-79
2022/05/11 10:03:51;;;;;;;5.00;3.00;;;27.20;65.50;;;;;;6227680;23;20008;-78
2022/05/11 10:06:20;;;;;;;5.03;3.22;;;27.30;65.10;;;;;;6254149;23;20024;-77
2022/05/11 10:08:50;;;;;;;5.15;3.38;;;27.30;64.30;;;;;;6255815;23;20087;-79
2022/05/11 10:11:33;;;;;;;5.07;3.65;;;27.30;65.20;;;;;;6264572;23;20020;-79
2022/05/11 10:22:49;;;;;;;4.13;3.13;;;27.70;63.70;;;;;;6253199;23;20147;-79
2022/05/11 10:25:20;;;;;;;5.32;3.03;;;27.70;64.10;;;;;;6202011;23;20071;-78
2022/05/11 10:28:17;;;;;;;5.78;3.25;;;28.00;62.60;;;;;;6227086;23;20022;-77
2022/05/11 10:31:12;;;;;;;7.20;3.42;;;28.00;63.00;;;;;;6252819;22;20332;-77
2022/05/11 10:34:42;;;;;;;;;;;;;;;;;;;;;
2022/05/11 10:38:06;;;;;;;4.15;2.88;;;28.70;63.00;;;;;;6253637;23;20068;-78
2022/05/11 10:45:17;;;;;;;5.68;2.78;;;29.10;61.20;;;;;;6160695;23;20112;-77
2022/05/11 10:49:30;;;;;;;7.25;2.80;;;29.10;60.50;;;;;;6159596;23;20373;-78
2022/05/11 10:52:21;;;;;;;4.10;2.50;;;28.90;59.80;;;;;;6159717;23;20012;-77
2022/05/11 10:55:11;;;;;;;6.45;2.90;;;29.10;58.70;;;;;;6160789;23;20028;-78
2022/05/11 10:57:43;;;;;;;5.70;2.80;;;29.00;58.80;;;;;;6110806;23;20005;-77
2022/05/11 11:00:18;;;;;;;5.72;2.85;;;29.00;58.10;;;;;;6161875;23;20013;-77
2022/05/11 11:02:57;;;;;;;4.28;2.70;;;28.70;57.90;;;;;;6159554;23;20021;-78
2022/05/11 11:05:25;;;;;;;5.22;2.40;;;28.70;57.80;;;;;;6135560;23;20079;-79
2022/05/11 11:08:09;;;;;;;3.65;2.55;;;28.70;57.70;;;;;;6160146;23;20104;-77
2022/05/11 11:10:56;;;;;;;2.92;2.55;;;28.70;57.30;;;;;;6134150;23;20073;-77
2022/05/11 11:13:38;;;;;;;4.67;2.57;;;28.80;57.90;;;;;;6159656;23;20005;-78
2022/05/11 11:16:08;;;;;;;6.55;2.72;;;29.00;58.20;;;;;;6134925;23;20053;-77
2022/05/11 11:18:41;;;;;;;4.80;2.75;;;29.20;58.20;;;;;;6159676;23;20129;-77
2022/05/11 11:21:10;;;;;;;4.10;2.50;;;29.70;56.70;;;;;;6183731;23;20004;-78
2022/05/11 11:23:38;;;;;;;5.97;2.80;;;29.40;56.60;;;;;;6221740;23;20290;-78
2022/05/11 11:26:10;;;;;;;3.00;2.45;;;29.30;57.00;;;;;;6222254;23;20020;-76
2022/05/11 11:28:39;;;;;;;3.35;2.50;;;29.90;56.80;;;;;;6195450;23;20080;-76
2022/05/11 11:31:14;;;;;;;4.57;2.30;;;30.60;55.60;;;;;;6195082;23;20046;-78
2022/05/11 11:34:01;;;;;;;5.00;2.40;;;30.80;55.80;;;;;;6221656;23;20061;-79
2022/05/11 11:36:42;;;;;;;3.08;2.33;;;30.60;55.50;;;;;;6196728;23;20035;-78
2022/05/11 11:39:48;;;;;;;3.30;2.20;;;30.40;55.90;;;;;;6221826;23;20366;-78
2022/05/11 11:42:31;;;;;;;5.35;2.60;;;31.20;55.30;;;;;;6222046;23;20027;-80
2022/05/11 11:44:57;;;;;;;11.43;2.40;;;31.50;54.50;;;;;;6222323;23;20001;-79
2022/05/11 11:47:26;;;;;;;6.28;2.30;;;32.10;55.00;;;;;;6221301;23;20210;-79
2022/05/11 11:50:21;;;;;;;5.55;2.40;;;33.60;53.30;;;;;;6222087;23;20016;-77
2022/05/11 11:53:15;;;;;;;4.65;1.88;;;34.50;52.80;;;;;;6195278;23;20020;-79
2022/05/11 11:55:44;;;;;;;3.58;1.95;;;34.80;51.60;;;;;;6221883;23;20059;-79
2022/05/11 11:58:24;;;;;;;3.25;1.80;;;35.60;50.20;;;;;;6222131;23;20004;-77
2022/05/11 12:00:52;;;;;;;3.70;1.65;;;34.70;50.10;;;;;;6221748;23;20302;-78
2022/05/11 12:03:24;;;;;;;3.25;1.98;;;34.70;50.00;;;;;;6222033;23;20008;-78
2022/05/11 12:15:01;;;;;;;2.75;1.60;;;35.00;49.70;;;;;;6221850;23;20031;-77
2022/05/11 12:17:05;;;;;;;2.97;1.63;;;35.90;47.20;;;;;;6223166;23;20361;-77
2022/05/11 12:19:34;;;;;;;4.90;1.87;;;36.20;46.80;;;;;;6223991;23;20004;-78
2022/05/11 12:22:02;;;;;;;3.28;1.42;;;36.00;46.80;;;;;;6224397;23;20031;-76
2022/05/11 12:24:35;;;;;;;3.90;1.52;;;36.20;46.70;;;;;;6222650;23;20000;-77
2022/05/11 12:27:13;;;;;;;2.10;1.42;;;36.90;46.40;;;;;;6217008;23;20243;-77
2022/05/11 12:30:30;;;;;;;7.68;1.90;;;37.30;46.20;;;;;;6161766;23;20029;-79
2022/05/11 12:33:08;;;;;;;4.25;1.70;;;38.00;46.10;;;;;;6160685;23;20033;-77
2022/05/11 12:35:43;;;;;;;7.13;1.60;;;38.50;45.30;;;;;;6161434;23;20005;-77
2022/05/11 12:38:11;;;;;;;3.15;1.40;;;38.70;43.70;;;;;;6162038;23;20001;-76
2022/05/11 12:44:12;;;;;;;2.28;1.23;;;38.70;43.00;;;;;;6161715;23;20164;-76
2022/05/11 12:46:42;;;;;;;3.50;1.50;;;38.20;43.10;;;;;;6160754;23;20010;-76
2022/05/11 12:49:13;;;;;;;5.57;1.42;;;37.90;42.60;;;;;;6161689;23;20231;-76
2022/05/11 12:51:42;;;;;;;6.00;2.20;;;38.40;42.90;;;;;;6161326;23;20008;-77
2022/05/11 12:54:18;;;;;;;2.70;1.50;;;39.10;42.50;;;;;;6161947;23;20295;-76
2022/05/11 12:56:44;;;;;;;2.90;1.45;;;39.20;42.40;;;;;;6161496;23;20001;-76
2022/05/11 12:59:24;;;;;;;3.75;1.40;;;39.40;42.50;;;;;;6135872;23;20007;-76
2022/05/11 13:01:50;;;;;;;4.32;1.35;;;39.70;42.00;;;;;;6160245;23;20204;-76
2022/05/11 13:04:24;;;;;;;3.08;1.50;;;39.20;42.40;;;;;;6162628;23;20253;-75
2022/05/11 13:06:59;;;;;;;3.67;1.20;;;39.50;42.10;;;;;;6160080;23;20013;-77
2022/05/11 13:09:43;;;;;;;3.05;1.20;;;40.10;42.00;;;;;;6161622;23;20444;-77
2022/05/11 13:16:19;;;;;;;2.50;1.40;;;41.70;41.00;;;;;;6014378;23;20059;-77
2022/05/11 13:19:19;;;;;;;3.83;1.30;;;40.80;41.00;;;;;;6187773;23;20017;-77
2022/05/11 13:21:47;;;;;;;2.20;1.20;;;40.50;40.80;;;;;;6190964;23;20001;-76
2022/05/11 13:24:13;;;;;;;3.22;1.40;;;39.80;41.30;;;;;;6191817;23;20044;-78
2022/05/11 13:26:45;;;;;;;3.15;1.33;;;39.80;41.00;;;;;;6191191;23;20135;-77
2022/05/11 13:29:13;;;;;;;4.68;1.35;;;39.90;41.10;;;;;;6192128;23;20005;-77
2022/05/11 13:31:39;;;;;;;2.35;1.30;;;41.00;41.10;;;;;;6190125;23;20335;-77
2022/05/11 13:34:06;;;;;;;1.98;1.30;;;42.40;40.40;;;;;;6191808;23;19997;-76
2022/05/11 13:36:43;;;;;;;5.65;1.50;;;40.90;40.30;;;;;;6140254;23;20012;-76
2022/05/11 13:39:09;;;;;;;6.28;1.70;;;40.10;41.30;;;;;;6141103;23;20024;-76
2022/05/11 13:41:57;;;;;;;3.13;1.40;;;40.70;41.30;;;;;;6191044;23;20001;-76
2022/05/11 13:44:38;;;;;;;3.28;1.50;;;41.10;40.60;;;;;;6192062;23;20001;-78
2022/05/11 13:50:27;;;;;;;5.40;1.20;;;41.80;39.80;;;;;;6192432;23;20075;-78
2022/05/11 13:56:29;;;;;;;;;;;40.70;40.10;;;;;;6193788;23;20067;-79
2022/05/11 13:58:57;;;;;;;3.42;1.13;;;40.10;40.60;;;;;;6193774;23;19904;-77
2022/05/11 14:01:48;;;;;;;2.70;1.15;;;40.60;39.60;;;;;;6197469;23;20215;-79
2022/05/11 14:04:31;;;;;;;3.60;1.33;;;41.30;39.70;;;;;;6223651;23;20008;-80
2022/05/11 14:07:13;;;;;;;2.15;1.20;;;41.90;39.60;;;;;;6196901;23;20005;-77
2022/05/11 14:09:42;;;;;;;2.95;1.50;;;41.70;39.60;;;;;;6222897;23;20009;-79
2022/05/11 14:12:12;;;;;;;3.88;1.30;;;42.80;38.60;;;;;;6223414;23;20020;-79
2022/05/11 14:17:54;;;;;;;;;;;41.90;38.80;;;;;;6223945;23;20341;-80
2022/05/11 14:20:43;;;;;;;3.05;1.13;;;41.50;39.50;;;;;;6224175;23;19900;-79
2022/05/11 14:23:09;;;;;;;2.40;1.33;;;42.30;39.70;;;;;;6223424;23;20004;-79
2022/05/11 14:25:35;;;;;;;4.05;1.40;;;43.20;39.40;;;;;;6222676;23;20004;-78
2022/05/11 14:28:01;;;;;;;2.45;1.00;;;43.40;39.10;;;;;;6196968;23;20039;-78
2022/05/11 14:30:36;;;;;;;2.53;1.27;;;42.70;39.00;;;;;;6222068;23;20200;-79
2022/05/11 14:33:17;;;;;;;2.65;1.13;;;43.10;38.90;;;;;;6223060;23;20000;-77
2022/05/11 14:35:55;;;;;;;3.97;1.42;;;43.80;38.80;;;;;;6196410;23;20024;-78
2022/05/11 14:38:59;;;;;;;4.35;1.55;;;42.60;38.50;;;;;;6223367;23;20011;-78
2022/05/11 14:41:50;;;;;;;2.45;1.20;;;43.20;38.20;;;;;;6201884;23;20055;-78
2022/05/11 14:44:15;;;;;;;5.18;1.30;;;43.00;38.20;;;;;;6223241;23;20000;-78
2022/05/11 14:46:43;;;;;;;2.53;1.55;;;42.00;38.50;;;;;;6206974;23;20022;-76
2022/05/11 14:49:10;;;;;;;2.90;1.48;;;43.10;38.60;;;;;;6172431;23;20004;-78
2022/05/11 14:51:40;;;;;;;4.10;1.42;;;42.40;39.10;;;;;;6196423;23;20106;-79
2022/05/11 14:54:12;;;;;;;1.60;1.20;;;43.40;39.80;;;;;;6172653;23;20143;-79
2022/05/11 14:56:41;;;;;;;5.25;1.40;;;43.60;38.00;;;;;;6171141;23;20004;-79
2022/05/11 15:02:20;;;;;;;3.95;1.42;;;42.20;38.40;;;;;;6222141;23;20028;-78
2022/05/11 15:04:47;;;;;;;4.13;1.48;;;42.00;38.80;;;;;;6170692;23;20350;-79
2022/05/11 15:07:15;;;;;;;3.40;1.30;;;42.10;39.20;;;;;;6196640;23;20080;-78
2022/05/11 15:09:42;;;;;;;2.70;1.40;;;42.50;39.50;;;;;;6194391;23;20054;-78
2022/05/11 15:14:54;;;;;;;3.30;1.40;;;44.90;39.40;;;;;;6196269;23;20064;-78
2022/05/11 15:17:28;;;;;;;2.92;1.40;;;45.00;38.20;;;;;;6220390;23;20287;-78
2022/05/11 15:20:14;;;;;;;3.47;1.60;;;45.10;38.60;;;;;;6221818;23;20004;-78
2022/05/11 15:22:41;;;;;;;3.22;1.42;;;43.70;38.50;;;;;;6171164;23;20011;-77
2022/05/11 15:25:11;;;;;;;3.63;1.50;;;43.30;39.00;;;;;;6223139;23;20003;-78
2022/05/11 15:27:42;;;;;;;3.55;1.60;;;42.80;39.40;;;;;;6195736;23;20379;-77
2022/05/11 15:30:09;;;;;;;3.85;1.50;;;41.00;39.80;;;;;;6170983;23;20068;-78
2022/05/11 15:32:37;;;;;;;3.20;1.40;;;41.40;40.50;;;;;;6195591;23;20008;-79
2022/05/11 15:35:04;;;;;;;10.35;2.45;;;41.60;40.50;;;;;;6222679;23;20091;-77
2022/05/11 15:37:30;;;;;;;4.53;1.90;;;42.30;40.20;;;;;;6171311;23;20008;-79
2022/05/11 15:39:57;;;;;;;3.03;1.52;;;43.00;39.80;;;;;;6225090;23;20005;-77
2022/05/11 15:42:48;;;;;;;3.10;1.37;;;42.80;39.50;;;;;;6224239;23;20194;-79
2022/05/11 15:45:16;;;;;;;3.13;1.48;;;42.70;39.90;;;;;;6196365;23;20417;-78
2022/05/11 15:47:42;;;;;;;2.53;1.30;;;43.00;39.30;;;;;;6222095;23;19996;-80
2022/05/11 15:50:09;;;;;;;2.42;1.50;;;42.80;39.30;;;;;;6222902;23;20028;-79
2022/05/11 15:52:47;;;;;;;3.07;1.77;;;43.20;39.70;;;;;;6222279;23;20222;-79
2022/05/11 15:55:13;;;;;;;4.90;1.30;;;43.00;39.10;;;;;;6196310;23;20004;-79
2022/05/11 16:01:25;;;;;;;2.20;1.10;;;41.20;39.40;;;;;;6221522;23;20012;-78
2022/05/11 16:03:50;;;;;;;2.42;1.17;;;41.50;38.80;;;;;;6221406;23;20066;-79
2022/05/11 16:06:16;;;;;;;3.30;1.30;;;42.30;38.50;;;;;;6195588;23;20028;-79
2022/05/11 16:08:43;;;;;;;3.13;1.20;;;42.20;38.70;;;;;;6194659;23;20015;-79
2022/05/11 16:11:20;;;;;;;2.10;1.30;;;42.10;38.50;;;;;;6222409;23;20005;-79
2022/05/11 16:13:46;;;;;;;3.38;1.40;;;42.30;38.00;;;;;;6221893;23;20039;-79
2022/05/11 16:16:12;;;;;;;4.28;1.17;;;41.70;37.90;;;;;;6221007;23;20014;-79
2022/05/11 16:21:22;;;;;;;3.35;1.15;;;41.20;38.60;;;;;;6222045;23;20007;-79
2022/05/11 16:23:50;;;;;;;4.53;1.30;;;42.00;38.10;;;;;;6170221;23;20000;-77
2022/05/11 16:26:16;;;;;;;2.80;1.20;;;41.70;38.20;;;;;;6195938;23;20005;-77
2022/05/11 16:28:42;;;;;;;1.95;1.08;;;40.80;38.80;;;;;;6194714;23;20207;-77
2022/05/11 16:34:17;;;;;;;1.90;1.23;;;40.80;38.70;;;;;;6221946;23;20056;-77
2022/05/11 16:36:43;;;;;;;3.10;1.25;;;40.70;38.80;;;;;;6221851;23;19996;-82
2022/05/11 16:39:10;;;;;;;3.90;1.42;;;41.20;39.00;;;;;;6196387;23;20012;-79
2022/05/11 16:41:36;;;;;;;4.22;1.38;;;41.30;38.70;;;;;;6195357;23;20015;-79
2022/05/11 16:44:03;;;;;;;4.18;1.73;;;40.10;38.80;;;;;;6195988;23;19988;-78
2022/05/11 16:46:55;;;;;;;3.90;1.30;;;39.20;39.90;;;;;;6221097;23;20008;-79
2022/05/11 16:49:21;;;;;;;4.05;1.33;;;38.00;39.90;;;;;;6222463;23;20116;-79
2022/05/11 16:51:47;;;;;;;4.00;1.60;;;36.30;41.00;;;;;;6194806;23;20036;-79
2022/05/11 16:54:15;;;;;;;4.38;1.23;;;34.90;42.70;;;;;;6170589;23;20203;-77
2022/05/11 16:56:41;;;;;;;3.38;1.45;;;33.70;42.90;;;;;;6194955;23;20362;-77
2022/05/11 16:59:22;;;;;;;2.10;1.50;;;32.90;43.90;;;;;;6195683;23;20001;-79
2022/05/11 17:01:49;;;;;;;3.63;1.50;;;32.50;44.00;;;;;;6220503;23;20028;-79
2022/05/11 17:04:16;;;;;;;4.40;1.50;;;32.20;43.90;;;;;;6165373;23;20291;-78
2022/05/11 17:06:52;;;;;;;2.90;1.50;;;32.00;43.90;;;;;;6164599;23;20000;-77
2022/05/11 17:09:17;;;;;;;4.57;1.13;;;31.70;43.90;;;;;;6190093;23;20424;-80
2022/05/11 17:12:05;;;;;;;2.40;1.13;;;31.60;43.40;;;;;;6185657;23;20127;-79
2022/05/11 17:14:31;;;;;;;5.63;1.50;;;31.60;43.60;;;;;;6186008;23;20016;-77
2022/05/11 17:16:57;;;;;;;3.38;1.50;;;31.20;43.50;;;;;;6159324;23;20008;-78
2022/05/11 17:23:19;;;;;;;4.15;1.30;;;31.00;43.00;;;;;;6066339;23;20014;-79
2022/05/11 17:25:45;;;;;;;3.80;1.27;;;31.20;42.70;;;;;;6068132;23;20010;-79
2022/05/11 17:28:12;;;;;;;3.72;1.17;;;31.00;42.00;;;;;;6066999;23;20022;-78
2022/05/11 17:30:38;;;;;;;2.53;1.30;;;30.90;42.30;;;;;;6068533;23;20070;-79
2022/05/11 17:33:07;;;;;;;2.17;1.27;;;30.90;42.40;;;;;;6068259;23;20150;-81
2022/05/11 17:39:00;;;;;;;;;;;32.10;41.30;;;;;;6069954;23;20241;-81
2022/05/11 17:41:46;;;;;;;2.97;1.40;;;33.60;40.50;;;;;;6070202;23;19902;-80
2022/05/11 17:44:14;;;;;;;3.88;1.42;;;34.30;40.10;;;;;;6045097;23;20062;-80
2022/05/11 17:47:01;;;;;;;;;;;34.60;39.60;;;;;;6026278;23;20023;-82
2022/05/11 17:49:36;;;;;;;4.27;1.10;;;34.80;39.80;;;;;;6039524;23;20214;-81
2022/05/11 17:55:31;;;;;;;2.53;1.20;;;34.30;39.70;;;;;;6012055;23;20011;-80
2022/05/11 17:58:00;;;;;;;3.15;1.27;;;34.10;40.00;;;;;;6018753;23;20026;-80
2022/05/11 18:00:42;;;;;;;3.30;1.50;;;33.20;40.50;;;;;;6109289;23;20032;-80
2022/05/11 18:03:08;;;;;;;3.97;1.48;;;32.10;41.40;;;;;;6128005;23;20022;-79
2022/05/11 18:10:36;;;;;;;4.03;1.30;;;30.20;43.00;;;;;;6162960;23;20013;-79
2022/05/11 18:13:01;;;;;;;2.80;1.20;;;29.60;43.70;;;;;;6163730;23;20007;-82
2022/05/11 18:15:28;;;;;;;4.90;1.70;;;29.20;44.00;;;;;;6131160;23;20010;-80
2022/05/11 18:17:55;;;;;;;7.55;1.67;;;29.00;44.50;;;;;;6137835;23;20013;-81
2022/05/11 18:20:24;;;;;;;6.68;1.60;;;28.80;44.40;;;;;;6163941;23;20005;-80
2022/05/11 18:22:50;;;;;;;4.32;1.50;;;28.60;44.70;;;;;;6163448;23;20001;-80
2022/05/11 18:25:19;;;;;;;3.38;1.45;;;28.40;45.20;;;;;;6162198;23;20084;-82
2022/05/11 18:40:57;;;;;;;2.70;1.38;;;27.60;45.90;;;;;;6011722;23;20059;-81
2022/05/11 18:43:24;;;;;;;3.13;1.63;;;27.50;45.90;;;;;;6012611;23;20008;-81
2022/05/11 18:46:01;;;;;;;3.00;1.65;;;27.30;46.00;;;;;;5989490;23;20023;-81
2022/05/11 18:48:27;;;;;;;3.00;1.70;;;27.20;45.90;;;;;;6045659;23;20167;-81
2022/05/11 18:50:52;;;;;;;3.53;1.63;;;27.10;46.10;;;;;;6046027;23;20056;-80
2022/05/11 18:53:18;;;;;;;3.95;1.50;;;27.00;46.30;;;;;;6021961;23;20011;-82
2022/05/11 18:55:44;;;;;;;3.78;1.67;;;26.90;46.40;;;;;;6047794;23;20294;-80
2022/05/11 18:58:10;;;;;;;4.57;1.70;;;26.70;46.40;;;;;;6048034;23;20011;-80
2022/05/11 19:00:38;;;;;;;3.63;1.60;;;26.60;46.90;;;;;;6046193;23;20015;-79
2022/05/11 19:07:10;;;;;;;3.80;1.63;;;26.20;47.40;;;;;;6075896;23;20006;-80
2022/05/11 19:09:36;;;;;;;3.58;1.45;;;26.00;47.60;;;;;;6073390;23;20003;-80
2022/05/11 19:12:02;;;;;;;3.17;1.48;;;25.80;47.90;;;;;;6075873;23;20085;-79
2022/05/11 19:14:28;;;;;;;4.60;1.90;;;25.80;47.90;;;;;;6073977;23;20074;-80
2022/05/11 19:36:29;;;;;;;2.60;1.40;;;25.00;47.50;;;;;;6025949;23;21106;31
2022/05/11 19:38:55;;;;;;;4.13;1.50;;;25.00;46.90;;;;;;6077527;23;20388;-81
2022/05/11 19:41:21;;;;;;;3.75;1.40;;;25.00;46.30;;;;;;6104183;23;20013;-80
2022/05/11 19:43:53;;;;;;;3.83;1.20;;;25.00;46.10;;;;;;6077952;23;20034;-81
2022/05/11 19:46:33;;;;;;;3.58;1.50;;;24.90;46.10;;;;;;6103550;23;20015;-81
2022/05/11 19:48:59;;;;;;;3.40;1.40;;;24.90;46.30;;;;;;6072473;23;20070;-80
2022/05/11 19:51:25;;;;;;;7.25;1.80;;;24.70;46.20;;;;;;6072391;23;20013;-80
2022/05/11 19:53:51;;;;;;;4.05;1.45;;;24.70;46.30;;;;;;6071711;23;20069;-80
2022/05/11 19:56:17;;;;;;;2.97;1.70;;;24.50;46.60;;;;;;6072364;23;20010;-80
2022/05/11 19:58:48;;;;;;;2.97;1.58;;;24.50;47.10;;;;;;6048188;23;20196;-82
2022/05/11 20:01:29;;;;;;;3.97;1.50;;;24.30;47.30;;;;;;6086318;23;20013;-81
2022/05/11 20:03:58;;;;;;;3.72;1.77;;;24.10;47.70;;;;;;6160448;23;20009;-82
2022/05/11 20:06:25;;;;;;;4.05;1.45;;;24.00;47.70;;;;;;6159887;23;20081;-81
2022/05/11 20:08:52;;;;;;;4.78;1.98;;;24.00;47.60;;;;;;6134575;23;20077;-82
2022/05/11 20:11:21;;;;;;;3.20;1.67;;;23.80;48.30;;;;;;6160172;23;20209;-81
2022/05/11 20:13:47;;;;;;;;;;;23.70;48.40;;;;;;6135267;23;20692;-81
2022/05/11 20:16:14;;;;;;;3.28;1.80;;;23.60;48.60;;;;;;6157814;23;19958;-82
2022/05/11 20:18:42;;;;;;;3.58;1.73;;;23.60;48.40;;;;;;6158973;23;20021;-82
2022/05/11 20:21:11;;;;;;;2.72;1.52;;;23.50;48.70;;;;;;6112234;23;20036;-81
2022/05/11 20:23:37;;;;;;;3.38;1.67;;;23.40;48.50;;;;;;6111510;23;20279;-82
2022/05/11 20:26:03;;;;;;;5.72;1.55;;;23.30;49.10;;;;;;6160801;23;20009;-81
2022/05/11 20:28:29;;;;;;;4.30;1.50;;;23.30;48.60;;;;;;6135534;23;20005;-82
2022/05/11 20:35:04;;;;;;;4.65;1.83;;;23.20;49.10;;;;;;6148916;23;20010;-80
2022/05/11 20:36:48;;;;;;;4.68;2.22;;;23.10;49.40;;;;;;6130882;23;20101;-80
2022/05/11 20:39:37;;;;;;;6.15;1.77;;;23.10;49.40;;;;;;6107961;23;20283;-80
2022/05/11 20:42:09;;;;;;;5.10;1.50;;;23.10;49.40;;;;;;6107375;23;20254;-80
2022/05/11 20:44:35;;;;;;;5.15;1.98;;;23.00;49.10;;;;;;6106556;23;20013;-81
2022/05/11 20:47:03;;;;;;;4.07;1.70;;;23.00;49.40;;;;;;6106003;23;20052;-84
2022/05/11 20:49:35;;;;;;;3.33;1.35;;;22.90;49.30;;;;;;6162188;23;20016;-82
2022/05/11 20:52:03;;;;;;;4.05;1.48;;;23.00;48.70;;;;;;6140117;23;20031;-78
2022/05/11 20:54:54;;;;;;;2.85;1.40;;;23.10;48.70;;;;;;6142439;23;20016;-77
2022/05/11 20:57:19;;;;;;;2.92;1.17;;;23.10;48.50;;;;;;6163914;23;19997;-80
2022/05/11 20:59:45;;;;;;;2.70;1.30;;;23.20;48.30;;;;;;6162724;23;20012;-79
2022/05/11 21:02:11;;;;;;;6.32;1.58;;;23.20;48.20;;;;;;6116885;23;20069;-80
2022/05/11 21:04:37;;;;;;;3.17;1.25;;;23.30;48.00;;;;;;6107625;23;20287;-79
2022/05/11 21:07:03;;;;;;;2.45;1.33;;;23.40;47.90;;;;;;6108311;23;20030;-80
2022/05/11 21:09:28;;;;;;;2.92;1.30;;;23.50;47.90;;;;;;6132389;23;20311;-80